Terminal Aerodrome Forecast
Issued by NWS

Home | Current Version | Previous Version | Text Only | Print | Product List | Glossary On
Versions: 1 2 3 4 5 6 7 8 9 10 11 12 13 14 15 16 17
000
FTUS44 KBMX 231740
TAFANB
TAF
KANB 231740Z 2318/2418 35005KT P6SM BKN035
     FM232200 35005KT P6SM VCTS BKN040CB
     FM240400 00000KT P6SM BKN040
      TEMPO 2410/2413 4SM BR BKN005=

USA.gov is the U.S. government's official web portal to all federal, state and local government web resources and services.